sensor_id;sensor_type;location;lat;lon;timestamp;pressure;altitude;pressure_sealevel;temperature;humidity
36254;BME280;22291;52.250;21.228;2023-01-01T00:01:39;100098.55;;;12.34;81.60
36254;BME280;22291;52.250;21.228;2023-01-01T00:04:11;100092.09;;;12.32;81.51
36254;BME280;22291;52.250;21.228;2023-01-01T00:06:41;100090.52;;;12.31;81.66
36254;BME280;22291;52.250;21.228;2023-01-01T00:09:10;100106.80;;;12.31;81.64
36254;BME280;22291;52.250;21.228;2023-01-01T00:11:56;100095.70;;;12.30;81.65
36254;BME280;22291;52.250;21.228;2023-01-01T00:14:23;100102.02;;;12.28;81.62
36254;BME280;22291;52.250;21.228;2023-01-01T00:16:49;100095.88;;;12.25;81.64
36254;BME280;22291;52.250;21.228;2023-01-01T00:19:16;100103.94;;;12.28;81.74
36254;BME280;22291;52.250;21.228;2023-01-01T00:21:42;100099.88;;;12.28;81.71
36254;BME280;22291;52.250;21.228;2023-01-01T00:24:09;100083.35;;;12.27;81.65
36254;BME280;22291;52.250;21.228;2023-01-01T00:26:37;100091.73;;;12.28;81.73
36254;BME280;22291;52.250;21.228;2023-01-01T00:29:04;100092.52;;;12.28;81.77
36254;BME280;22291;52.250;21.228;2023-01-01T00:31:31;100087.89;;;12.29;81.72
36254;BME280;22291;52.250;21.228;2023-01-01T00:33:59;100075.79;;;12.26;81.72
36254;BME280;22291;52.250;21.228;2023-01-01T00:36:27;100086.31;;;12.28;81.75
36254;BME280;22291;52.250;21.228;2023-01-01T00:38:56;100080.08;;;12.27;81.72
36254;BME280;22291;52.250;21.228;2023-01-01T00:41:23;100085.42;;;12.30;81.77
36254;BME280;22291;52.250;21.228;2023-01-01T00:43:50;100092.09;;;12.32;81.66
36254;BME280;22291;52.250;21.228;2023-01-01T00:46:16;100091.87;;;12.31;81.75
36254;BME280;22291;52.250;21.228;2023-01-01T00:48:44;100108.05;;;12.34;81.70
36254;BME280;22291;52.250;21.228;2023-01-01T00:51:11;100098.34;;;12.33;81.53
36254;BME280;22291;52.250;21.228;2023-01-01T00:53:38;100106.37;;;12.36;81.58
36254;BME280;22291;52.250;21.228;2023-01-01T00:56:07;100094.63;;;12.38;81.52
36254;BME280;22291;52.250;21.228;2023-01-01T00:58:34;100093.52;;;12.39;81.45
36254;BME280;22291;52.250;21.228;2023-01-01T01:01:01;100096.16;;;12.41;81.33
36254;BME280;22291;52.250;21.228;2023-01-01T01:03:27;100100.44;;;12.42;81.27
36254;BME280;22291;52.250;21.228;2023-01-01T01:08:36;100104.19;;;12.44;81.10
36254;BME280;22291;52.250;21.228;2023-01-01T01:11:21;100104.19;;;12.44;81.06
36254;BME280;22291;52.250;21.228;2023-01-01T01:13:53;100102.05;;;12.43;80.98
36254;BME280;22291;52.250;21.228;2023-01-01T01:16:27;100104.51;;;12.42;80.94
36254;BME280;22291;52.250;21.228;2023-01-01T01:18:59;100101.91;;;12.40;80.81
36254;BME280;22291;52.250;21.228;2023-01-01T01:21:28;100097.13;;;12.37;80.76
36254;BME280;22291;52.250;21.228;2023-01-01T01:23:59;100099.91;;;12.34;80.80
36254;BME280;22291;52.250;21.228;2023-01-01T01:26:30;100106.80;;;12.31;80.82
36254;BME280;22291;52.250;21.228;2023-01-01T01:28:59;100107.69;;;12.29;80.83
36254;BME280;22291;52.250;21.228;2023-01-01T01:31:28;100108.55;;;12.27;80.85
36254;BME280;22291;52.250;21.228;2023-01-01T01:33:57;100112.61;;;12.27;80.86
36254;BME280;22291;52.250;21.228;2023-01-01T01:36:25;100118.71;;;12.24;80.84
36254;BME280;22291;52.250;21.228;2023-01-01T01:38:54;100109.54;;;12.23;80.89
36254;BME280;22291;52.250;21.228;2023-01-01T01:41:24;100112.64;;;12.19;80.83
36254;BME280;22291;52.250;21.228;2023-01-01T01:46:32;100106.29;;;12.14;80.84
36254;BME280;22291;52.250;21.228;2023-01-01T01:49:20;100104.22;;;12.11;80.88
36254;BME280;22291;52.250;21.228;2023-01-01T01:51:47;100106.78;;;12.08;80.90
36254;BME280;22291;52.250;21.228;2023-01-01T01:54:17;100110.14;;;12.05;81.01
36254;BME280;22291;52.250;21.228;2023-01-01T01:56:49;100108.07;;;12.02;81.03
36254;BME280;22291;52.250;21.228;2023-01-01T01:59:23;100099.32;;;11.96;81.10
36254;BME280;22291;52.250;21.228;2023-01-01T02:01:53;100096.61;;;11.96;81.17
36254;BME280;22291;52.250;21.228;2023-01-01T02:04:22;100095.33;;;11.93;81.20
36254;BME280;22291;52.250;21.228;2023-01-01T02:06:51;100104.02;;;11.93;81.31
36254;BME280;22291;52.250;21.228;2023-01-01T02:09:20;100098.61;;;11.93;81.32
36254;BME280;22291;52.250;21.228;2023-01-01T02:11:48;100100.03;;;11.90;81.33
36254;BME280;22291;52.250;21.228;2023-01-01T02:14:17;100095.97;;;11.90;81.31
36254;BME280;22291;52.250;21.228;2023-01-01T02:16:57;100098.42;;;11.89;81.19
36254;BME280;22291;52.250;21.228;2023-01-01T02:22:25;100083.77;;;11.90;81.31
36254;BME280;22291;52.250;21.228;2023-01-01T02:31:00;100100.89;;;11.88;81.27
36254;BME280;22291;52.250;21.228;2023-01-01T02:33:28;100098.18;;;11.88;81.24
36254;BME280;22291;52.250;21.228;2023-01-01T02:36:01;100105.52;;;11.88;81.21
36254;BME280;22291;52.250;21.228;2023-01-01T02:38:32;100113.09;;;11.88;81.09
36254;BME280;22291;52.250;21.228;2023-01-01T02:41:05;100106.66;;;11.87;81.16
36254;BME280;22291;52.250;21.228;2023-01-01T02:43:34;100097.95;;;11.87;81.11
36254;BME280;22291;52.250;21.228;2023-01-01T02:46:09;100097.71;;;11.86;81.10
36254;BME280;22291;52.250;21.228;2023-01-01T02:48:42;100092.07;;;11.85;81.02
36254;BME280;22291;52.250;21.228;2023-01-01T02:51:37;100083.38;;;11.86;81.01
36254;BME280;22291;52.250;21.228;2023-01-01T02:57:08;100082.80;;;11.86;80.90
36254;BME280;22291;52.250;21.228;2023-01-01T03:00:05;100094.68;;;11.88;80.86
36254;BME280;22291;52.250;21.228;2023-01-01T03:08:54;100090.16;;;11.94;80.54
36254;BME280;22291;52.250;21.228;2023-01-01T03:14:33;100082.81;;;12.04;80.46
36254;BME280;22291;52.250;21.228;2023-01-01T03:17:29;100076.25;;;12.05;79.80
36254;BME280;22291;52.250;21.228;2023-01-01T03:20:00;100064.27;;;12.14;79.66
36254;BME280;22291;52.250;21.228;2023-01-01T03:22:31;100063.91;;;12.25;79.74
36254;BME280;22291;52.250;21.228;2023-01-01T03:25:07;100056.95;;;12.30;79.09
36254;BME280;22291;52.250;21.228;2023-01-01T03:27:55;100060.26;;;12.36;78.74
36254;BME280;22291;52.250;21.228;2023-01-01T03:30:23;100062.92;;;12.44;79.25
36254;BME280;22291;52.250;21.228;2023-01-01T03:32:59;100054.53;;;12.52;78.43
36254;BME280;22291;52.250;21.228;2023-01-01T03:35:45;100054.58;;;12.58;77.32
36254;BME280;22291;52.250;21.228;2023-01-01T03:38:23;100052.68;;;12.65;77.74
36254;BME280;22291;52.250;21.228;2023-01-01T03:41:25;100056.34;;;12.69;77.49
36254;BME280;22291;52.250;21.228;2023-01-01T03:43:48;100074.36;;;12.74;77.48
36254;BME280;22291;52.250;21.228;2023-01-01T03:46:21;100078.33;;;12.76;76.24
36254;BME280;22291;52.250;21.228;2023-01-01T03:48:51;100088.42;;;12.82;76.72
36254;BME280;22291;52.250;21.228;2023-01-01T03:51:31;100095.26;;;12.88;76.59
36254;BME280;22291;52.250;21.228;2023-01-01T03:54:13;100097.64;;;12.89;75.99
36254;BME280;22291;52.250;21.228;2023-01-01T03:56:47;100133.97;;;12.91;74.45
36254;BME280;22291;52.250;21.228;2023-01-01T03:59:20;100111.41;;;12.99;75.07
36254;BME280;22291;52.250;21.228;2023-01-01T04:01:57;100113.60;;;13.06;74.53
36254;BME280;22291;52.250;21.228;2023-01-01T04:04:25;100103.22;;;13.14;74.62
36254;BME280;22291;52.250;21.228;2023-01-01T04:06:55;100095.36;;;13.21;73.99
36254;BME280;22291;52.250;21.228;2023-01-01T04:09:24;100101.37;;;13.27;74.85
36254;BME280;22291;52.250;21.228;2023-01-01T04:11:54;100093.69;;;13.29;73.12
36254;BME280;22291;52.250;21.228;2023-01-01T04:14:36;100094.21;;;13.37;74.05
36254;BME280;22291;52.250;21.228;2023-01-01T04:17:08;100105.91;;;13.44;72.54
36254;BME280;22291;52.250;21.228;2023-01-01T04:19:38;100110.35;;;13.49;72.29
36254;BME280;22291;52.250;21.228;2023-01-01T04:22:06;100117.61;;;13.57;71.70
36254;BME280;22291;52.250;21.228;2023-01-01T04:24:33;100116.95;;;13.60;71.20
36254;BME280;22291;52.250;21.228;2023-01-01T04:26:59;100126.13;;;13.61;72.02
36254;BME280;22291;52.250;21.228;2023-01-01T04:29:25;100133.62;;;13.64;70.93
36254;BME280;22291;52.250;21.228;2023-01-01T04:31:54;100116.86;;;13.62;72.07
36254;BME280;22291;52.250;21.228;2023-01-01T04:34:24;100136.42;;;13.62;70.73
36254;BME280;22291;52.250;21.228;2023-01-01T04:36:51;100133.86;;;13.66;71.23
36254;BME280;22291;52.250;21.228;2023-01-01T04:39:17;100129.43;;;13.67;71.44
36254;BME280;22291;52.250;21.228;2023-01-01T04:41:45;100136.92;;;13.70;70.80
36254;BME280;22291;52.250;21.228;2023-01-01T04:44:13;100142.81;;;13.72;70.56
36254;BME280;22291;52.250;21.228;2023-01-01T04:46:39;100140.91;;;13.73;71.10
36254;BME280;22291;52.250;21.228;2023-01-01T04:49:10;100143.30;;;13.74;70.08
36254;BME280;22291;52.250;21.228;2023-01-01T04:51:36;100147.59;;;13.75;69.86
36254;BME280;22291;52.250;21.228;2023-01-01T04:54:07;100137.98;;;13.78;70.47
36254;BME280;22291;52.250;21.228;2023-01-01T04:56:33;100143.17;;;13.77;69.95
36254;BME280;22291;52.250;21.228;2023-01-01T04:58:59;100148.41;;;13.76;69.85
36254;BME280;22291;52.250;21.228;2023-01-01T05:01:28;100143.17;;;13.77;69.85
36254;BME280;22291;52.250;21.228;2023-01-01T05:03:58;100148.07;;;13.77;69.61
36254;BME280;22291;52.250;21.228;2023-01-01T05:06:28;100140.70;;;13.78;69.20
36254;BME280;22291;52.250;21.228;2023-01-01T05:08:57;100161.55;;;13.80;69.54
36254;BME280;22291;52.250;21.228;2023-01-01T05:11:26;100160.88;;;13.83;67.50
36254;BME280;22291;52.250;21.228;2023-01-01T05:13:59;100163.81;;;13.84;68.55
36254;BME280;22291;52.250;21.228;2023-01-01T05:16:37;100149.68;;;13.85;69.05
36254;BME280;22291;52.250;21.228;2023-01-01T05:19:06;100156.23;;;13.83;68.10
36254;BME280;22291;52.250;21.228;2023-01-01T05:21:36;100144.23;;;13.85;68.62
36254;BME280;22291;52.250;21.228;2023-01-01T05:24:09;100149.44;;;13.83;68.30
36254;BME280;22291;52.250;21.228;2023-01-01T05:26:39;100156.80;;;13.83;67.69
36254;BME280;22291;52.250;21.228;2023-01-01T05:29:09;100152.39;;;13.85;68.84
36254;BME280;22291;52.250;21.228;2023-01-01T05:31:38;100142.64;;;13.83;68.65
36254;BME280;22291;52.250;21.228;2023-01-01T05:34:04;100128.47;;;13.84;67.43
36254;BME280;22291;52.250;21.228;2023-01-01T05:36:34;100151.73;;;13.88;68.01
36254;BME280;22291;52.250;21.228;2023-01-01T05:39:11;100158.74;;;13.89;68.02
36254;BME280;22291;52.250;21.228;2023-01-01T05:41:42;100172.25;;;13.91;67.84
36254;BME280;22291;52.250;21.228;2023-01-01T05:44:09;100154.45;;;13.88;68.01
36254;BME280;22291;52.250;21.228;2023-01-01T05:46:39;100158.74;;;13.89;67.63
36254;BME280;22291;52.250;21.228;2023-01-01T05:49:09;100168.83;;;13.88;67.78
36254;BME280;22291;52.250;21.228;2023-01-01T05:51:37;100169.95;;;13.87;67.11
36254;BME280;22291;52.250;21.228;2023-01-01T05:54:05;100162.94;;;13.86;66.63
36254;BME280;22291;52.250;21.228;2023-01-01T05:56:31;100169.49;;;13.85;67.03
36254;BME280;22291;52.250;21.228;2023-01-01T05:58:57;100164.84;;;13.86;67.19
36254;BME280;22291;52.250;21.228;2023-01-01T06:01:26;100179.80;;;13.86;67.23
36254;BME280;22291;52.250;21.228;2023-01-01T06:03:56;100184.45;;;13.85;66.29
36254;BME280;22291;52.250;21.228;2023-01-01T06:06:29;100181.85;;;13.89;67.09
36254;BME280;22291;52.250;21.228;2023-01-01T06:09:01;100173.00;;;13.86;67.17
36254;BME280;22291;52.250;21.228;2023-01-01T06:11:32;100190.91;;;13.87;66.86
36254;BME280;22291;52.250;21.228;2023-01-01T06:14:02;100194.09;;;13.89;65.61
36254;BME280;22291;52.250;21.228;2023-01-01T06:16:30;100185.27;;;13.92;66.68
36254;BME280;22291;52.250;21.228;2023-01-01T06:18:58;100199.11;;;13.93;66.43
36254;BME280;22291;52.250;21.228;2023-01-01T06:21:27;100201.47;;;13.94;65.68
36254;BME280;22291;52.250;21.228;2023-01-01T06:23:57;100203.85;;;13.96;65.83
36254;BME280;22291;52.250;21.228;2023-01-01T06:26:29;100203.85;;;13.96;66.32
36254;BME280;22291;52.250;21.228;2023-01-01T06:28:59;100204.67;;;13.96;65.08
36254;BME280;22291;52.250;21.228;2023-01-01T06:31:29;100199.11;;;13.99;65.52
36254;BME280;22291;52.250;21.228;2023-01-01T06:34:03;100205.91;;;13.99;65.37
36254;BME280;22291;52.250;21.228;2023-01-01T06:36:29;100206.81;;;13.97;65.01
36254;BME280;22291;52.250;21.228;2023-01-01T06:38:57;100207.27;;;13.99;63.64
36254;BME280;22291;52.250;21.228;2023-01-01T06:41:26;100209.41;;;13.99;65.43
36254;BME280;22291;52.250;21.228;2023-01-01T06:43:58;100215.43;;;13.99;65.17
36254;BME280;22291;52.250;21.228;2023-01-01T06:46:32;100218.94;;;13.99;65.37
36254;BME280;22291;52.250;21.228;2023-01-01T06:49:11;100215.30;;;13.95;65.39
36254;BME280;22291;52.250;21.228;2023-01-01T06:51:40;100225.48;;;13.92;65.16
36254;BME280;22291;52.250;21.228;2023-01-01T06:54:11;100228.53;;;13.91;64.66
36254;BME280;22291;52.250;21.228;2023-01-01T06:56:39;100227.98;;;13.91;64.30
36254;BME280;22291;52.250;21.228;2023-01-01T06:59:08;100239.41;;;13.91;64.36
36254;BME280;22291;52.250;21.228;2023-01-01T07:01:36;100229.10;;;13.90;64.39
36254;BME280;22291;52.250;21.228;2023-01-01T07:04:09;100214.02;;;13.87;63.92
36254;BME280;22291;52.250;21.228;2023-01-01T07:06:40;100231.78;;;13.84;64.59
36254;BME280;22291;52.250;21.228;2023-01-01T07:09:09;100231.66;;;13.80;65.12
36254;BME280;22291;52.250;21.228;2023-01-01T07:11:39;100222.83;;;13.77;64.70
36254;BME280;22291;52.250;21.228;2023-01-01T07:14:05;100228.59;;;13.76;64.63
36254;BME280;22291;52.250;21.228;2023-01-01T07:16:32;100229.13;;;13.75;64.65
36254;BME280;22291;52.250;21.228;2023-01-01T07:19:01;100236.05;;;13.73;64.93
36254;BME280;22291;52.250;21.228;2023-01-01T07:21:33;100246.21;;;13.70;65.15
36254;BME280;22291;52.250;21.228;2023-01-01T07:24:10;100249.38;;;13.66;64.13
36254;BME280;22291;52.250;21.228;2023-01-01T07:26:40;100236.57;;;13.66;64.72
36254;BME280;22291;52.250;21.228;2023-01-01T07:29:07;100238.62;;;13.69;64.43
36254;BME280;22291;52.250;21.228;2023-01-01T07:31:40;100236.05;;;13.73;64.69
36254;BME280;22291;52.250;21.228;2023-01-01T07:34:14;100260.18;;;13.74;64.55
36254;BME280;22291;52.250;21.228;2023-01-01T07:36:39;100259.61;;;13.75;64.78
36254;BME280;22291;52.250;21.228;2023-01-01T07:39:09;100265.83;;;13.75;64.76
36254;BME280;22291;52.250;21.228;2023-01-01T07:41:37;100279.42;;;13.75;64.17
36254;BME280;22291;52.250;21.228;2023-01-01T07:44:05;100275.59;;;13.76;64.18
36254;BME280;22291;52.250;21.228;2023-01-01T07:46:37;100275.83;;;13.77;65.07
36254;BME280;22291;52.250;21.228;2023-01-01T07:49:07;100280.37;;;13.79;64.36
36254;BME280;22291;52.250;21.228;2023-01-01T07:51:36;100280.72;;;13.84;64.62
36254;BME280;22291;52.250;21.228;2023-01-01T07:54:06;100281.98;;;13.87;64.51
36254;BME280;22291;52.250;21.228;2023-01-01T07:56:33;100293.96;;;14.00;62.86
36254;BME280;22291;52.250;21.228;2023-01-01T07:59:01;100273.89;;;13.99;63.27
36254;BME280;22291;52.250;21.228;2023-01-01T08:01:27;100282.80;;;14.08;64.25
36254;BME280;22291;52.250;21.228;2023-01-01T08:03:53;100271.59;;;14.16;64.24
36254;BME280;22291;52.250;21.228;2023-01-01T08:06:20;100282.84;;;14.27;63.87
36254;BME280;22291;52.250;21.228;2023-01-01T08:08:48;100291.09;;;14.39;61.39
36254;BME280;22291;52.250;21.228;2023-01-01T08:11:14;100287.04;;;14.51;61.34
36254;BME280;22291;52.250;21.228;2023-01-01T08:13:40;100293.69;;;14.63;61.23
36254;BME280;22291;52.250;21.228;2023-01-01T08:16:07;100307.54;;;14.76;60.87
36254;BME280;22291;52.250;21.228;2023-01-01T08:18:33;100296.91;;;14.89;60.96
36254;BME280;22291;52.250;21.228;2023-01-01T08:20:59;100299.45;;;15.07;61.10
36254;BME280;22291;52.250;21.228;2023-01-01T08:23:26;100304.00;;;15.27;61.33
36254;BME280;22291;52.250;21.228;2023-01-01T08:26:00;100308.19;;;15.43;60.26
36254;BME280;22291;52.250;21.228;2023-01-01T08:28:29;100313.73;;;15.59;59.51
36254;BME280;22291;52.250;21.228;2023-01-01T08:30:58;100315.56;;;15.80;60.16
36254;BME280;22291;52.250;21.228;2023-01-01T08:33:25;100321.63;;;16.14;59.79
36254;BME280;22291;52.250;21.228;2023-01-01T08:35:54;100328.58;;;16.39;57.96
36254;BME280;22291;52.250;21.228;2023-01-01T08:38:23;100315.30;;;16.60;58.01
36254;BME280;22291;52.250;21.228;2023-01-01T08:40:49;100318.34;;;16.93;56.20
36254;BME280;22291;52.250;21.228;2023-01-01T08:43:18;100319.45;;;17.14;57.11
36254;BME280;22291;52.250;21.228;2023-01-01T08:45:44;100328.36;;;17.27;55.24
36254;BME280;22291;52.250;21.228;2023-01-01T08:48:13;100328.61;;;17.38;54.65
36254;BME280;22291;52.250;21.228;2023-01-01T08:50:40;100339.67;;;17.51;55.14
36254;BME280;22291;52.250;21.228;2023-01-01T08:53:06;100329.32;;;17.50;53.30
36254;BME280;22291;52.250;21.228;2023-01-01T08:55:32;100333.38;;;17.41;55.20
36254;BME280;22291;52.250;21.228;2023-01-01T08:58:07;100327.17;;;17.60;54.40
36254;BME280;22291;52.250;21.228;2023-01-01T09:00:36;100333.03;;;17.68;53.81
36254;BME280;22291;52.250;21.228;2023-01-01T09:03:02;100344.95;;;17.85;54.07
36254;BME280;22291;52.250;21.228;2023-01-01T09:05:28;100345.02;;;18.15;52.94
36254;BME280;22291;52.250;21.228;2023-01-01T09:07:55;100348.05;;;18.39;54.18
36254;BME280;22291;52.250;21.228;2023-01-01T09:10:21;100342.70;;;18.65;54.62
36254;BME280;22291;52.250;21.228;2023-01-01T09:12:47;100341.47;;;18.92;50.25
36254;BME280;22291;52.250;21.228;2023-01-01T09:15:17;100345.73;;;19.13;52.30
36254;BME280;22291;52.250;21.228;2023-01-01T09:17:43;100351.44;;;19.27;51.74
36254;BME280;22291;52.250;21.228;2023-01-01T09:20:13;100354.85;;;19.44;50.04
36254;BME280;22291;52.250;21.228;2023-01-01T09:22:39;100348.06;;;19.60;48.25
36254;BME280;22291;52.250;21.228;2023-01-01T09:25:08;100342.02;;;19.88;50.70
36254;BME280;22291;52.250;21.228;2023-01-01T09:27:34;100352.87;;;20.24;47.22
36254;BME280;22291;52.250;21.228;2023-01-01T09:30:01;100360.67;;;20.36;47.76
36254;BME280;22291;52.250;21.228;2023-01-01T09:32:27;100348.50;;;20.33;47.18
36254;BME280;22291;52.250;21.228;2023-01-01T09:34:57;100346.53;;;20.33;46.48
36254;BME280;22291;52.250;21.228;2023-01-01T09:37:25;100359.81;;;20.28;46.08
36254;BME280;22291;52.250;21.228;2023-01-01T09:39:53;100355.82;;;20.08;43.30
36254;BME280;22291;52.250;21.228;2023-01-01T09:45:27;100350.84;;;19.51;45.03
36254;BME280;22291;52.250;21.228;2023-01-01T09:48:03;100346.98;;;19.06;44.88
36254;BME280;22291;52.250;21.228;2023-01-01T09:50:41;100352.29;;;18.65;46.21
36254;BME280;22291;52.250;21.228;2023-01-01T09:53:47;100340.41;;;18.38;47.90
36254;BME280;22291;52.250;21.228;2023-01-01T09:56:23;100344.10;;;18.17;47.76
36254;BME280;22291;52.250;21.228;2023-01-01T09:58:54;100338.08;;;18.01;47.38
36254;BME280;22291;52.250;21.228;2023-01-01T10:01:46;100355.64;;;17.90;47.72
36254;BME280;22291;52.250;21.228;2023-01-01T10:04:29;100342.80;;;17.85;49.04
36254;BME280;22291;52.250;21.228;2023-01-01T10:07:17;100342.77;;;17.75;49.40
36254;BME280;22291;52.250;21.228;2023-01-01T10:09:52;100354.41;;;17.72;48.06
36254;BME280;22291;52.250;21.228;2023-01-01T10:12:43;100345.19;;;17.70;47.30
36254;BME280;22291;52.250;21.228;2023-01-01T10:15:31;100349.02;;;17.76;47.37
36254;BME280;22291;52.250;21.228;2023-01-01T10:18:03;100343.50;;;18.07;49.80
36254;BME280;22291;52.250;21.228;2023-01-01T10:20:45;100328.02;;;18.25;46.96
36254;BME280;22291;52.250;21.228;2023-01-01T10:23:25;100342.66;;;18.42;48.96
36254;BME280;22291;52.250;21.228;2023-01-01T10:25:53;100337.34;;;18.73;47.19
36254;BME280;22291;52.250;21.228;2023-01-01T10:28:26;100338.86;;;18.90;45.98
36254;BME280;22291;52.250;21.228;2023-01-01T10:31:16;100320.61;;;18.97;45.08
36254;BME280;22291;52.250;21.228;2023-01-01T10:33:49;100325.77;;;19.12;46.84
36254;BME280;22291;52.250;21.228;2023-01-01T10:36:19;100330.46;;;19.25;46.41
36254;BME280;22291;52.250;21.228;2023-01-01T10:38:47;100320.91;;;19.29;47.31
36254;BME280;22291;52.250;21.228;2023-01-01T10:41:17;100329.00;;;19.31;46.40
36254;BME280;22291;52.250;21.228;2023-01-01T10:43:48;100311.45;;;19.36;45.67
36254;BME280;22291;52.250;21.228;2023-01-01T10:46:21;100317.02;;;19.70;45.84
36254;BME280;22291;52.250;21.228;2023-01-01T10:49:09;100323.11;;;19.96;45.26
36254;BME280;22291;52.250;21.228;2023-01-01T10:51:48;100317.12;;;20.04;45.63
36254;BME280;22291;52.250;21.228;2023-01-01T10:57:46;100320.14;;;20.76;44.25
36254;BME280;22291;52.250;21.228;2023-01-01T10:59:45;100309.33;;;21.18;43.59
36254;BME280;22291;52.250;21.228;2023-01-01T11:02:23;100323.89;;;21.47;41.62
36254;BME280;22291;52.250;21.228;2023-01-01T11:07:43;100303.32;;;22.31;42.72
36254;BME280;22291;52.250;21.228;2023-01-01T11:10:23;100299.45;;;22.68;40.57
36254;BME280;22291;52.250;21.228;2023-01-01T11:12:52;100301.85;;;22.80;40.21
36254;BME280;22291;52.250;21.228;2023-01-01T11:18:12;100302.25;;;22.89;39.41
36254;BME280;22291;52.250;21.228;2023-01-01T11:20:39;100297.68;;;22.62;39.02
36254;BME280;22291;52.250;21.228;2023-01-01T11:26:06;100300.47;;;22.84;39.39
36254;BME280;22291;52.250;21.228;2023-01-01T11:31:47;100297.32;;;23.00;38.97
36254;BME280;22291;52.250;21.228;2023-01-01T11:34:27;100296.73;;;22.82;37.01
36254;BME280;22291;52.250;21.228;2023-01-01T11:37:10;100299.05;;;22.62;38.33
36254;BME280;22291;52.250;21.228;2023-01-01T11:39:53;100302.17;;;22.43;36.60
36254;BME280;22291;52.250;21.228;2023-01-01T11:42:28;100299.72;;;22.27;38.70
36254;BME280;22291;52.250;21.228;2023-01-01T11:45:13;100293.08;;;22.31;37.11
36254;BME280;22291;52.250;21.228;2023-01-01T11:47:52;100297.55;;;22.23;38.39
36254;BME280;22291;52.250;21.228;2023-01-01T11:50:25;100293.77;;;22.07;37.05
36254;BME280;22291;52.250;21.228;2023-01-01T11:52:56;100290.16;;;21.95;37.32
36254;BME280;22291;52.250;21.228;2023-01-01T11:55:35;100290.34;;;21.93;37.74
36254;BME280;22291;52.250;21.228;2023-01-01T12:00:54;100287.44;;;22.03;38.21
36254;BME280;22291;52.250;21.228;2023-01-01T12:09:10;100280.77;;;21.65;37.78
36254;BME280;22291;52.250;21.228;2023-01-01T12:14:58;100288.02;;;21.60;38.31
36254;BME280;22291;52.250;21.228;2023-01-01T12:17:37;100305.35;;;21.64;39.44
36254;BME280;22291;52.250;21.228;2023-01-01T12:20:34;100313.84;;;21.76;38.44
36254;BME280;22291;52.250;21.228;2023-01-01T12:23:03;100308.80;;;21.85;39.32
36254;BME280;22291;52.250;21.228;2023-01-01T12:25:38;100312.94;;;21.85;39.00
36254;BME280;22291;52.250;21.228;2023-01-01T12:39:51;100302.69;;;21.47;38.96
36254;BME280;22291;52.250;21.228;2023-01-01T12:42:42;100307.83;;;21.32;38.90
36254;BME280;22291;52.250;21.228;2023-01-01T12:56:52;100316.13;;;20.19;40.75
36254;BME280;22291;52.250;21.228;2023-01-01T12:59:35;100318.98;;;20.09;41.03
36254;BME280;22291;52.250;21.228;2023-01-01T13:02:01;100322.83;;;20.05;41.37
36254;BME280;22291;52.250;21.228;2023-01-01T13:04:30;100335.00;;;19.90;40.81
36254;BME280;22291;52.250;21.228;2023-01-01T13:07:02;100317.98;;;19.68;40.80
36254;BME280;22291;52.250;21.228;2023-01-01T13:09:43;100318.66;;;19.48;41.46
36254;BME280;22291;52.250;21.228;2023-01-01T13:12:14;100318.54;;;19.27;41.17
36254;BME280;22291;52.250;21.228;2023-01-01T13:14:47;100328.95;;;19.04;41.65
36254;BME280;22291;52.250;21.228;2023-01-01T13:17:23;100328.20;;;18.84;41.64
36254;BME280;22291;52.250;21.228;2023-01-01T13:20:19;100332.17;;;18.67;41.53
36254;BME280;22291;52.250;21.228;2023-01-01T13:22:48;100331.32;;;18.54;42.43
36254;BME280;22291;52.250;21.228;2023-01-01T13:25:18;100342.73;;;18.36;42.60
36254;BME280;22291;52.250;21.228;2023-01-01T13:33:27;100334.78;;;18.02;43.83
36254;BME280;22291;52.250;21.228;2023-01-01T13:38:52;100326.84;;;17.87;44.34
36254;BME280;22291;52.250;21.228;2023-01-01T13:41:29;100327.44;;;17.80;44.17
36254;BME280;22291;52.250;21.228;2023-01-01T13:49:33;100339.56;;;17.63;44.60
36254;BME280;22291;52.250;21.228;2023-01-01T13:58:14;100361.50;;;17.41;45.61
36254;BME280;22291;52.250;21.228;2023-01-01T14:03:54;100371.20;;;17.23;45.59
36254;BME280;22291;52.250;21.228;2023-01-01T14:06:37;100369.22;;;17.13;46.01
36254;BME280;22291;52.250;21.228;2023-01-01T14:09:11;100370.77;;;17.05;46.39
36254;BME280;22291;52.250;21.228;2023-01-01T14:11:41;100378.66;;;16.94;46.22
36254;BME280;22291;52.250;21.228;2023-01-01T14:14:25;100386.55;;;16.89;46.63
36254;BME280;22291;52.250;21.228;2023-01-01T14:16:57;100396.24;;;16.80;47.05
36254;BME280;22291;52.250;21.228;2023-01-01T14:19:28;100401.28;;;16.72;47.15
36254;BME280;22291;52.250;21.228;2023-01-01T14:21:58;100401.06;;;16.65;47.50
36254;BME280;22291;52.250;21.228;2023-01-01T14:24:28;100419.98;;;16.58;47.50
36254;BME280;22291;52.250;21.228;2023-01-01T14:26:58;100417.15;;;16.54;47.72
36254;BME280;22291;52.250;21.228;2023-01-01T14:29:29;100420.13;;;16.49;48.04
36254;BME280;22291;52.250;21.228;2023-01-01T14:31:58;100435.62;;;16.45;48.29
36254;BME280;22291;52.250;21.228;2023-01-01T14:34:32;100429.23;;;16.41;48.41
36254;BME280;22291;52.250;21.228;2023-01-01T14:37:05;100433.47;;;16.38;48.40
36254;BME280;22291;52.250;21.228;2023-01-01T14:39:36;100432.11;;;16.32;48.74
36254;BME280;22291;52.250;21.228;2023-01-01T14:42:15;100437.22;;;16.28;48.73
36254;BME280;22291;52.250;21.228;2023-01-01T14:44:42;100448.51;;;16.26;49.00
36254;BME280;22291;52.250;21.228;2023-01-01T14:47:25;100446.22;;;16.22;49.21